Time;durP1;ratioP1;P1;durP2;ratioP2;P2;SDS_P1;SDS_P2;PMS_P1;PMS_P2;Temp;Humidity;BMP_temperature;BMP_pressure;BME280_temperature;BME280_humidity;BME280_pressure;Samples;Min_cycle;Max_cycle;Signal;HPM_P1;HPM_P2
2022/12/27 00:01:43;;;;;;;8.70;2.40;;;4.90;99.90;;;;;;4991379;28;20432;-87
2022/12/27 00:04:09;;;;;;;10.50;2.70;;;3.60;99.90;;;;;;5023474;28;20350;-88
2022/12/27 00:06:35;;;;;;;10.40;2.38;;;4.90;99.90;;;;;;5007107;28;20438;-88
2022/12/27 00:09:02;;;;;;;7.65;2.15;;;4.10;99.90;;;;;;5006359;28;20037;-89
2022/12/27 00:11:31;;;;;;;9.88;2.30;;;4.60;99.90;;;;;;5021784;28;20037;-88
2022/12/27 00:14:01;;;;;;;11.32;2.63;;;4.70;99.90;;;;;;5020421;28;20099;-88
2022/12/27 00:16:27;;;;;;;13.75;3.13;;;4.00;99.90;;;;;;5007213;28;20044;-88
2022/12/27 00:18:53;;;;;;;9.68;2.10;;;3.70;99.90;;;;;;5035553;28;20084;-88
2022/12/27 00:21:20;;;;;;;13.45;2.88;;;4.80;99.90;;;;;;5021068;28;20057;-87
2022/12/27 00:23:50;;;;;;;11.98;2.00;;;4.00;99.90;;;;;;5023790;28;20033;-87
2022/12/27 00:26:19;;;;;;;13.35;2.38;;;3.70;99.90;;;;;;5006217;28;20037;-87
2022/12/27 00:28:44;;;;;;;9.45;2.60;;;3.80;99.90;;;;;;5022596;28;20033;-87
2022/12/27 00:31:12;;;;;;;11.68;2.33;;;3.70;99.90;;;;;;5016637;28;20458;-87
2022/12/27 00:33:39;;;;;;;9.70;2.08;;;5.40;99.90;;;;;;5035334;28;20124;-87
2022/12/27 00:36:07;;;;;;;12.88;2.40;;;4.90;99.90;;;;;;5003499;28;20057;-87
2022/12/27 00:38:34;;;;;;;15.90;2.72;;;3.80;99.90;;;;;;5022720;28;21724;-87
2022/12/27 00:41:00;;;;;;;11.63;2.50;;;4.50;99.90;;;;;;5020968;28;20048;-87
2022/12/27 00:43:26;;;;;;;12.82;2.60;;;5.30;99.90;;;;;;5020587;28;20041;-87
2022/12/27 00:45:52;;;;;;;12.38;2.42;;;;;;;;;;5021867;28;20173;-87
2022/12/27 00:48:18;;;;;;;13.55;2.25;;;3.80;99.90;;;;;;5021439;28;20045;-87
2022/12/27 00:50:43;;;;;;;8.77;2.35;;;5.30;99.90;;;;;;4973600;28;20048;-87
2022/12/27 00:53:10;;;;;;;10.23;2.50;;;5.00;99.90;;;;;;5006483;28;20537;-88
2022/12/27 00:55:37;;;;;;;14.20;2.50;;;4.40;99.90;;;;;;5020795;28;20520;-89
2022/12/27 00:58:03;;;;;;;9.95;2.70;;;4.30;99.90;;;;;;5021787;28;20570;-87
2022/12/27 01:00:29;;;;;;;11.95;2.20;;;4.00;99.90;;;;;;5022233;28;20199;-87
2022/12/27 01:02:55;;;;;;;10.88;2.40;;;4.60;99.90;;;;;;5021912;28;20490;-87
2022/12/27 01:05:21;;;;;;;11.15;2.70;;;5.20;99.90;;;;;;5023201;28;20037;-88
2022/12/27 01:07:47;;;;;;;8.98;2.20;;;4.10;99.90;;;;;;5024065;28;20068;-88
2022/12/27 01:10:13;;;;;;;12.10;2.10;;;5.10;99.90;;;;;;4988946;28;20042;-86
2022/12/27 01:12:39;;;;;;;11.75;2.35;;;4.00;99.90;;;;;;5019692;28;20415;-88
2022/12/27 01:15:05;;;;;;;12.75;2.03;;;5.00;99.90;;;;;;4989353;28;20045;-87
2022/12/27 01:17:31;;;;;;;12.05;2.35;;;4.10;99.90;;;;;;4987828;28;20037;-87
2022/12/27 01:19:57;;;;;;;9.55;1.90;;;4.70;99.90;;;;;;5005304;28;20431;-87
2022/12/27 01:22:23;;;;;;;12.77;2.30;;;4.10;99.90;;;;;;5007372;28;20082;-86
2022/12/27 01:24:48;;;;;;;11.70;2.53;;;5.00;99.90;;;;;;5021766;28;20491;-88
2022/12/27 01:27:14;;;;;;;11.65;2.38;;;4.70;99.90;;;;;;5005261;28;20044;-88
2022/12/27 01:29:40;;;;;;;11.68;2.28;;;5.60;99.90;;;;;;4991076;28;20542;-87
2022/12/27 01:32:06;;;;;;;11.65;2.35;;;5.80;99.90;;;;;;4991528;28;20049;-87
2022/12/27 01:34:31;;;;;;;14.60;2.70;;;4.20;99.90;;;;;;5001186;28;20100;-87
2022/12/27 01:36:57;;;;;;;12.07;2.88;;;5.90;99.90;;;;;;5016955;28;20128;-88
2022/12/27 01:39:23;;;;;;;10.43;2.35;;;4.30;99.90;;;;;;4999543;28;20038;-89
2022/12/27 01:44:42;;;;;;;10.32;2.30;;;5.40;99.90;;;;;;5022094;28;20044;-87
2022/12/27 01:47:37;;;;;;;12.60;2.60;;;5.20;99.90;;;;;;5005100;28;20053;-88
2022/12/27 01:50:24;;;;;;;15.82;2.90;;;4.40;99.90;;;;;;5006745;28;20100;-86
2022/12/27 01:52:53;;;;;;;13.52;2.60;;;4.40;99.90;;;;;;5004616;28;20042;-89
2022/12/27 01:55:39;;;;;;;12.75;3.10;;;6.30;99.90;;;;;;5026337;28;20127;-89
2022/12/27 01:58:24;;;;;;;15.00;2.63;;;5.50;99.90;;;;;;5021051;28;20053;-87
2022/12/27 02:00:50;;;;;;;10.60;2.35;;;4.80;99.90;;;;;;5007177;28;20053;-87
2022/12/27 02:03:22;;;;;;;11.82;2.30;;;4.50;99.90;;;;;;5006787;28;20041;-87
2022/12/27 02:05:49;;;;;;;17.83;2.73;;;4.50;99.90;;;;;;5003025;28;20044;-87
2022/12/27 02:08:29;;;;;;;9.70;2.22;;;4.50;99.90;;;;;;5005759;28;20045;-87
2022/12/27 02:10:56;;;;;;;13.20;2.53;;;4.50;99.90;;;;;;5025102;28;20494;-87
2022/12/27 02:13:22;;;;;;;12.65;2.70;;;5.50;99.90;;;;;;5007861;28;20507;-86
2022/12/27 02:15:48;;;;;;;13.80;2.30;;;4.90;99.90;;;;;;5008955;28;20398;-87
2022/12/27 02:18:15;;;;;;;10.75;2.10;;;5.80;99.90;;;;;;5008909;28;20041;-87
2022/12/27 02:21:15;;;;;;;11.57;2.30;;;5.40;99.90;;;;;;4993105;28;20034;-87
2022/12/27 02:24:02;;;;;;;10.52;2.05;;;4.60;99.90;;;;;;5008338;28;20049;-88
2022/12/27 02:27:02;;;;;;;11.10;2.10;;;4.60;99.90;;;;;;5023751;28;20662;-88
2022/12/27 02:29:50;;;;;;;12.38;2.55;;;4.70;99.90;;;;;;5008546;28;20037;-87
2022/12/27 02:32:29;;;;;;;10.30;2.25;;;4.70;99.90;;;;;;5023978;28;20038;-87
2022/12/27 02:35:13;;;;;;;9.23;2.45;;;4.70;99.90;;;;;;5009048;28;20059;-87
2022/12/27 02:38:02;;;;;;;15.40;2.78;;;4.70;99.90;;;;;;5009731;28;20080;-87
2022/12/27 02:55:03;;;;;;;11.02;2.50;;;4.60;99.90;;;;;;5023566;28;20064;-87
2022/12/27 02:57:49;;;;;;;10.00;2.53;;;4.60;99.90;;;;;;5019479;28;20103;-87
2022/12/27 03:03:25;;;;;;;11.75;2.22;;;4.90;99.90;;;;;;5023763;28;20049;-87
2022/12/27 03:06:40;;;;;;;12.60;2.60;;;4.60;99.90;;;;;;5003977;28;20044;-86
2022/12/27 03:15:54;;;;;;;12.35;2.58;;;4.50;99.90;;;;;;5019552;28;20057;-87
2022/12/27 03:18:26;;;;;;;10.27;2.20;;;4.50;99.90;;;;;;4982420;28;20045;-88
2022/12/27 03:26:27;;;;;;;12.35;2.58;;;5.40;99.90;;;;;;5021146;28;20194;-88
2022/12/27 03:34:38;;;;;;;12.63;2.40;;;5.40;99.90;;;;;;5021358;28;20049;-88
2022/12/27 03:38:01;;;;;;;12.43;2.53;;;2.80;99.90;;;;;;5006770;28;20052;-87
2022/12/27 03:40:29;;;;;;;12.40;2.20;;;4.60;99.90;;;;;;5020915;28;20521;-87
2022/12/27 03:43:11;;;;;;;13.93;2.90;;;4.60;99.90;;;;;;5004828;28;20120;-87
2022/12/27 03:48:52;;;;;;;13.10;2.22;;;5.80;99.90;;;;;;5022143;28;20419;-86
2022/12/27 03:51:20;;;;;;;11.10;2.40;;;5.80;99.90;;;;;;5023474;28;20464;-86
2022/12/27 03:53:49;;;;;;;14.40;2.10;;;4.50;99.90;;;;;;5006020;28;20081;-87
2022/12/27 03:56:16;;;;;;;8.85;2.22;;;4.50;99.90;;;;;;5006351;28;20091;-87
2022/12/27 03:58:42;;;;;;;11.80;2.72;;;5.00;99.90;;;;;;5004314;28;20040;-87
2022/12/27 04:01:08;;;;;;;12.73;2.72;;;;;;;;;;5006737;28;20030;-88
2022/12/27 04:03:34;;;;;;;8.93;2.33;;;4.50;99.90;;;;;;5005125;28;20049;-88
2022/12/27 04:05:59;;;;;;;10.15;2.22;;;4.90;99.90;;;;;;5022892;28;20056;-87
2022/12/27 04:35:45;;;;;;;11.18;2.25;;;4.30;99.90;;;;;;5018458;28;20131;-86
2022/12/27 04:38:11;;;;;;;12.63;2.25;;;5.00;99.90;;;;;;5003795;28;20132;-87
2022/12/27 04:55:38;;;;;;;11.32;2.30;;;4.40;99.90;;;;;;5020736;28;20468;-88
2022/12/27 04:58:04;;;;;;;12.05;2.53;;;5.80;99.90;;;;;;5029346;28;20135;-88
2022/12/27 05:03:21;;;;;;;10.32;2.65;;;5.70;99.90;;;;;;5006255;28;20136;-89
2022/12/27 05:05:50;;;;;;;16.17;2.60;;;5.80;99.90;;;;;;5008324;28;20048;-87
2022/12/27 05:14:00;;;;;;;14.05;2.88;;;5.40;99.90;;;;;;4997201;28;20409;-87
2022/12/27 05:16:27;;;;;;;11.60;2.13;;;5.80;99.90;;;;;;5008826;28;20042;-87
2022/12/27 05:18:53;;;;;;;12.02;2.20;;;5.40;99.90;;;;;;5008503;28;20457;-88
2022/12/27 05:21:19;;;;;;;20.40;3.25;;;5.60;99.90;;;;;;5005694;28;20038;-87
2022/12/27 05:26:30;;;;;;;17.13;2.60;;;4.10;99.90;;;;;;5012873;28;20041;-87
2022/12/27 05:28:57;;;;;;;14.40;2.70;;;5.80;99.90;;;;;;5007745;28;20069;-86
2022/12/27 05:31:25;;;;;;;11.43;2.28;;;5.20;99.90;;;;;;5022379;28;20068;-87
2022/12/27 05:33:51;;;;;;;13.98;3.13;;;4.60;99.90;;;;;;5025745;28;20065;-88
2022/12/27 05:36:18;;;;;;;12.63;2.42;;;4.10;99.90;;;;;;5007648;28;20148;-87
2022/12/27 05:38:43;;;;;;;14.95;2.65;;;4.30;99.90;;;;;;5024597;28;20041;-88
2022/12/27 05:41:09;;;;;;;13.57;2.63;;;5.20;99.90;;;;;;4994340;28;20048;-86
2022/12/27 05:43:35;;;;;;;13.50;2.55;;;3.90;99.90;;;;;;5021802;28;20045;-86
2022/12/27 05:46:03;;;;;;;11.90;2.33;;;4.70;99.90;;;;;;5004144;28;20053;-87
2022/12/27 05:48:29;;;;;;;15.43;2.65;;;3.90;99.90;;;;;;5008114;28;20037;-87
2022/12/27 05:50:54;;;;;;;14.05;2.25;;;5.30;99.90;;;;;;5008447;28;20038;-87
2022/12/27 05:53:20;;;;;;;15.57;2.90;;;5.50;99.90;;;;;;4990331;28;20046;-87
2022/12/27 05:55:56;;;;;;;11.65;2.67;;;4.80;99.90;;;;;;5021495;28;20029;-87
2022/12/27 05:58:22;;;;;;;11.25;2.30;;;3.80;99.90;;;;;;5022967;28;20073;-86
2022/12/27 06:00:48;;;;;;;9.45;2.10;;;4.50;99.90;;;;;;5025381;28;20034;-87
2022/12/27 06:03:14;;;;;;;11.93;2.58;;;4.00;99.90;;;;;;5028669;28;20111;-87
2022/12/27 06:05:39;;;;;;;13.90;2.55;;;4.60;99.90;;;;;;4989639;28;20065;-86
2022/12/27 06:08:05;;;;;;;11.27;2.55;;;5.00;99.90;;;;;;4990970;28;20494;-86
2022/12/27 06:10:31;;;;;;;12.45;2.30;;;3.80;99.90;;;;;;5008588;28;20056;-87
2022/12/27 06:12:59;;;;;;;12.02;2.42;;;3.80;99.90;;;;;;5007639;28;20041;-87
2022/12/27 06:15:25;;;;;;;11.43;2.72;;;3.70;99.90;;;;;;5021993;28;20037;-87
2022/12/27 06:17:50;;;;;;;10.95;2.50;;;4.60;99.90;;;;;;4976901;28;20030;-87
2022/12/27 06:20:16;;;;;;;13.98;2.72;;;3.70;99.90;;;;;;5010923;28;20037;-87
2022/12/27 06:22:42;;;;;;;11.05;2.00;;;4.10;99.90;;;;;;5022795;28;20766;-88
2022/12/27 06:25:08;;;;;;;12.85;2.58;;;3.70;99.90;;;;;;5024446;28;20128;-88
2022/12/27 06:27:34;;;;;;;13.13;2.55;;;5.00;99.90;;;;;;5025845;28;20169;-88
2022/12/27 06:30:00;;;;;;;15.80;2.33;;;4.60;99.90;;;;;;4991519;28;20639;-87
2022/12/27 06:32:25;;;;;;;13.05;2.40;;;3.60;99.90;;;;;;5003966;28;20034;-87
2022/12/27 06:34:51;;;;;;;11.43;2.47;;;3.60;99.90;;;;;;4989424;28;20052;-87
2022/12/27 06:37:17;;;;;;;12.43;2.60;;;4.10;99.90;;;;;;5022716;28;20144;-87
2022/12/27 06:39:43;;;;;;;13.15;2.50;;;4.60;99.90;;;;;;4992102;28;20041;-88
2022/12/27 06:42:09;;;;;;;13.48;2.50;;;3.60;99.90;;;;;;5008026;28;20390;-88
2022/12/27 06:44:35;;;;;;;14.18;2.92;;;3.60;99.90;;;;;;5022787;28;20033;-88
2022/12/27 06:47:01;;;;;;;11.48;2.72;;;4.00;99.90;;;;;;5008044;28;20077;-87
2022/12/27 06:49:27;;;;;;;12.30;2.95;;;3.90;99.90;;;;;;5005415;28;20099;-87
2022/12/27 06:51:52;;;;;;;13.15;2.55;;;3.60;99.90;;;;;;4989798;28;20041;-87
2022/12/27 06:54:18;;;;;;;15.15;2.53;;;4.10;99.90;;;;;;5007344;28;20044;-88
2022/12/27 06:56:44;;;;;;;13.45;2.58;;;4.70;99.90;;;;;;5006757;28;20056;-86
2022/12/27 06:59:09;;;;;;;12.65;2.88;;;4.50;99.90;;;;;;5020412;28;20048;-87
2022/12/27 07:01:35;;;;;;;15.40;2.90;;;3.60;99.90;;;;;;5007754;28;20040;-87
2022/12/27 07:04:01;;;;;;;10.40;2.50;;;3.50;99.90;;;;;;5008406;28;20056;-87
2022/12/27 07:06:29;;;;;;;16.33;3.08;;;5.00;99.90;;;;;;4973158;28;20069;-86
2022/12/27 07:08:56;;;;;;;12.35;2.40;;;4.60;99.90;;;;;;5021122;28;20064;-87
2022/12/27 07:11:23;;;;;;;15.57;2.70;;;4.10;99.90;;;;;;5023405;28;20049;-87
2022/12/27 07:13:51;;;;;;;13.45;2.45;;;3.50;99.90;;;;;;5005546;28;20048;-88
2022/12/27 07:16:20;;;;;;;11.70;2.47;;;3.50;99.90;;;;;;5023408;28;20048;-87
2022/12/27 07:18:46;;;;;;;14.00;2.90;;;3.50;99.90;;;;;;5024043;28;20045;-86
2022/12/27 07:21:14;;;;;;;15.65;2.92;;;4.20;99.90;;;;;;5038348;28;20041;-87
2022/12/27 07:23:40;;;;;;;10.57;2.42;;;3.40;99.90;;;;;;5021618;28;20037;-87
2022/12/27 07:26:15;;;;;;;13.07;2.30;;;4.30;99.90;;;;;;5023978;28;20088;-87
2022/12/27 07:28:41;;;;;;;12.90;2.85;;;3.40;99.90;;;;;;5018986;28;20507;-87
2022/12/27 07:31:09;;;;;;;11.73;2.50;;;3.80;99.90;;;;;;5022508;28;20057;-88
2022/12/27 07:33:37;;;;;;;13.68;2.35;;;4.50;99.90;;;;;;5019313;28;20042;-88
2022/12/27 07:36:04;;;;;;;12.80;2.53;;;3.40;99.90;;;;;;5007581;28;20468;-87
2022/12/27 07:38:30;;;;;;;14.95;2.95;;;3.30;99.90;;;;;;5004986;28;20053;-88
2022/12/27 07:41:00;;;;;;;13.68;2.40;;;3.70;99.90;;;;;;4971452;28;20037;-87
2022/12/27 07:43:28;;;;;;;15.43;2.75;;;4.80;99.90;;;;;;5015291;28;20034;-87
2022/12/27 07:46:09;;;;;;;13.73;2.40;;;3.40;99.90;;;;;;5005246;28;20076;-87
2022/12/27 07:48:35;;;;;;;11.75;2.70;;;3.70;99.90;;;;;;5003351;28;20042;-87
2022/12/27 07:51:02;;;;;;;10.10;2.17;;;3.40;99.90;;;;;;5003973;28;20501;-87
2022/12/27 07:53:28;;;;;;;11.95;2.25;;;3.40;99.90;;;;;;5019534;28;20041;-87
2022/12/27 07:55:54;;;;;;;11.48;2.70;;;2.50;99.90;;;;;;5005018;28;20509;-88
2022/12/27 07:58:20;;;;;;;15.38;2.75;;;3.50;99.90;;;;;;4991077;28;20042;-88
2022/12/27 08:00:49;;;;;;;11.80;2.40;;;4.30;99.90;;;;;;5002566;28;21278;-87
2022/12/27 08:03:15;;;;;;;12.93;2.92;;;4.70;99.90;;;;;;5019733;28;20068;-88
2022/12/27 08:05:49;;;;;;;12.35;2.65;;;4.30;99.90;;;;;;5002002;28;20041;-88
2022/12/27 08:08:16;;;;;;;14.40;2.42;;;3.50;99.90;;;;;;5019208;28;20080;-87
2022/12/27 08:10:43;;;;;;;12.18;2.80;;;5.10;99.90;;;;;;5020803;28;20151;-87
2022/12/27 08:13:08;;;;;;;14.85;2.70;;;3.70;99.90;;;;;;5016477;28;20071;-87
2022/12/27 08:15:40;;;;;;;19.00;2.90;;;3.60;99.90;;;;;;5002684;28;20037;-88
2022/12/27 08:18:07;;;;;;;14.05;2.72;;;3.50;99.90;;;;;;5022163;28;20072;-88
2022/12/27 08:20:33;;;;;;;14.13;2.38;;;3.60;99.90;;;;;;5005891;28;20486;-88
2022/12/27 08:22:59;;;;;;;13.07;2.95;;;3.60;99.90;;;;;;4989555;28;20041;-89
2022/12/27 08:25:25;;;;;;;15.68;3.05;;;4.90;99.90;;;;;;4989330;28;20576;-88
2022/12/27 08:27:51;;;;;;;14.57;2.80;;;3.90;99.90;;;;;;5020893;28;20041;-88
2022/12/27 08:30:16;;;;;;;12.35;2.67;;;3.60;99.90;;;;;;5012965;28;20096;-89
2022/12/27 08:32:42;;;;;;;15.25;3.00;;;3.60;99.90;;;;;;5000047;28;20120;-88
2022/12/27 08:35:08;;;;;;;13.43;2.88;;;3.60;99.90;;;;;;4987494;28;20556;-88
2022/12/27 08:37:34;;;;;;;12.90;2.60;;;3.70;99.90;;;;;;5019826;28;20045;-88
2022/12/27 08:39:59;;;;;;;14.15;3.20;;;3.70;99.90;;;;;;5006092;28;20048;-87
2022/12/27 08:42:25;;;;;;;11.45;2.92;;;4.60;99.90;;;;;;4990998;28;20069;-87
2022/12/27 08:44:51;;;;;;;15.18;2.90;;;4.90;99.90;;;;;;4979848;28;20514;-87
2022/12/27 08:47:18;;;;;;;13.48;2.55;;;4.90;99.90;;;;;;4997550;28;20129;-88
2022/12/27 08:49:44;;;;;;;13.50;3.40;;;3.80;99.90;;;;;;5024363;28;20540;-87
2022/12/27 08:52:10;;;;;;;10.73;2.42;;;4.20;99.90;;;;;;4989630;28;20049;-88
2022/12/27 08:54:35;;;;;;;13.70;3.03;;;4.60;99.90;;;;;;4993772;28;20033;-87
2022/12/27 08:57:01;;;;;;;15.60;3.08;;;3.80;99.90;;;;;;5014859;28;20045;-87
2022/12/27 08:59:27;;;;;;;14.82;2.95;;;3.90;99.90;;;;;;4988906;28;20041;-87
2022/12/27 09:01:52;;;;;;;16.80;3.22;;;3.90;99.90;;;;;;5004984;28;20076;-87
2022/12/27 09:04:18;;;;;;;17.77;3.20;;;5.80;99.90;;;;;;4987568;28;20046;-87
2022/12/27 09:06:44;;;;;;;10.45;3.10;;;4.00;99.90;;;;;;4990811;28;20037;-89
2022/12/27 09:09:10;;;;;;;16.52;3.00;;;4.70;99.90;;;;;;5021824;28;20060;-88
2022/12/27 09:11:35;;;;;;;13.30;2.75;;;5.40;99.90;;;;;;4987742;28;20061;-87
2022/12/27 09:14:03;;;;;;;18.00;3.25;;;5.10;99.90;;;;;;5006293;28;20071;-87
2022/12/27 09:16:30;;;;;;;18.40;3.10;;;4.90;99.90;;;;;;5005338;28;20037;-87
2022/12/27 09:18:57;;;;;;;12.93;2.95;;;4.20;99.90;;;;;;5036746;28;20124;-88
2022/12/27 09:21:27;;;;;;;15.27;2.92;;;4.20;99.90;;;;;;5002935;28;20100;-87
2022/12/27 09:23:54;;;;;;;11.10;2.78;;;4.30;99.90;;;;;;5022774;28;20045;-89
2022/12/27 09:26:25;;;;;;;13.45;2.92;;;5.80;99.90;;;;;;5022002;28;20040;-87
2022/12/27 09:28:52;;;;;;;14.48;3.00;;;4.40;99.90;;;;;;5003754;28;20038;-89
2022/12/27 09:31:19;;;;;;;11.02;2.75;;;4.40;99.90;;;;;;5020300;28;20049;-88
2022/12/27 09:33:45;;;;;;;13.23;2.90;;;4.70;99.90;;;;;;5003244;28;20042;-87
2022/12/27 09:36:13;;;;;;;13.73;2.90;;;4.80;99.90;;;;;;5005150;28;20037;-87
2022/12/27 09:38:40;;;;;;;13.60;3.20;;;4.50;99.90;;;;;;5020514;28;21041;-87
2022/12/27 09:41:16;;;;;;;13.50;3.08;;;4.70;99.90;;;;;;5021569;28;20072;-88
2022/12/27 09:43:53;;;;;;;11.48;2.45;;;4.60;99.90;;;;;;5001190;28;20144;-88
2022/12/27 09:46:28;;;;;;;14.90;2.53;;;4.60;99.90;;;;;;5022045;28;20044;-88
2022/12/27 09:48:56;;;;;;;13.00;3.05;;;4.60;99.90;;;;;;5004880;28;20068;-88
2022/12/27 09:51:32;;;;;;;11.35;2.53;;;6.30;99.90;;;;;;5006069;28;20072;-87
2022/12/27 09:54:09;;;;;;;14.02;2.75;;;6.00;99.90;;;;;;5024186;28;20120;-88
2022/12/27 09:56:35;;;;;;;11.63;2.97;;;5.20;99.90;;;;;;5023996;28;20045;-87
2022/12/27 09:59:24;;;;;;;12.23;2.70;;;6.10;99.90;;;;;;5007603;28;20087;-87
2022/12/27 10:01:50;;;;;;;13.18;2.70;;;4.80;99.90;;;;;;5007323;28;20123;-87
2022/12/27 10:04:17;;;;;;;11.90;2.67;;;4.80;99.90;;;;;;5004558;28;20045;-87
2022/12/27 10:07:01;;;;;;;15.75;2.80;;;4.90;99.90;;;;;;4993203;28;20041;-87
2022/12/27 10:09:34;;;;;;;13.60;2.80;;;4.90;99.90;;;;;;5024633;28;20041;-87
2022/12/27 10:12:18;;;;;;;13.18;2.72;;;4.90;99.90;;;;;;5008478;28;20049;-88
2022/12/27 10:14:51;;;;;;;13.95;3.10;;;4.90;99.90;;;;;;5005731;28;20864;-87
2022/12/27 10:17:32;;;;;;;;;;;5.60;99.90;;;;;;5008079;28;20045;-88
2022/12/27 10:20:24;;;;;;;13.15;3.25;;;4.90;99.90;;;;;;5008564;28;20275;-87
2022/12/27 10:23:04;;;;;;;12.13;2.75;;;5.00;99.90;;;;;;5023586;28;20041;-87
2022/12/27 10:25:32;;;;;;;10.23;2.80;;;5.00;99.90;;;;;;5006869;28;20049;-87
2022/12/27 10:28:08;;;;;;;15.77;3.00;;;6.30;99.90;;;;;;5024027;28;20052;-87
2022/12/27 10:30:33;;;;;;;14.70;2.88;;;6.10;99.90;;;;;;5024007;28;20403;-87
2022/12/27 10:32:59;;;;;;;13.18;2.53;;;5.60;99.90;;;;;;4993174;28;20061;-87
2022/12/27 10:35:25;;;;;;;13.05;2.83;;;6.60;99.90;;;;;;5020143;28;20049;-87
2022/12/27 10:37:52;;;;;;;15.15;2.97;;;5.10;99.90;;;;;;5022822;28;20039;-87
2022/12/27 10:40:21;;;;;;;13.35;3.40;;;5.50;99.90;;;;;;5008264;28;20422;-87
2022/12/27 10:43:13;;;;;;;13.93;2.97;;;5.70;99.90;;;;;;5022738;28;20048;-87
2022/12/27 10:45:41;;;;;;;12.43;2.90;;;5.60;99.90;;;;;;5020393;28;20049;-87
2022/12/27 10:48:27;;;;;;;13.63;2.60;;;5.60;99.90;;;;;;4992520;28;20056;-87
2022/12/27 10:51:00;;;;;;;13.32;2.60;;;5.70;99.90;;;;;;5023113;28;20281;-87
2022/12/27 10:53:31;;;;;;;9.88;2.75;;;5.80;99.90;;;;;;5023533;28;20053;-88
2022/12/27 10:56:15;;;;;;;11.70;2.40;;;7.10;99.90;;;;;;5022515;28;20041;-87
2022/12/27 10:58:47;;;;;;;13.43;3.05;;;6.00;99.90;;;;;;5006907;28;20035;-87
2022/12/27 11:01:25;;;;;;;14.10;2.50;;;6.00;99.90;;;;;;5036002;28;20038;-88
2022/12/27 11:04:04;;;;;;;11.18;2.50;;;7.00;99.90;;;;;;5023678;28;20045;-88
2022/12/27 11:06:30;;;;;;;11.02;2.65;;;6.00;99.90;;;;;;5006932;28;20041;-87
2022/12/27 11:08:56;;;;;;;17.75;3.67;;;6.80;99.90;;;;;;5006676;28;20457;-87
2022/12/27 11:11:24;;;;;;;12.40;2.65;;;6.10;99.90;;;;;;4975636;28;20408;-88
2022/12/27 11:13:51;;;;;;;16.52;2.95;;;6.70;99.90;;;;;;5016480;28;20628;-87
2022/12/27 11:16:44;;;;;;;12.82;2.72;;;6.30;99.90;;;;;;5025392;28;20463;-88
2022/12/27 11:19:24;;;;;;;12.98;2.70;;;6.40;99.90;;;;;;5016680;28;20060;-88
2022/12/27 11:21:52;;;;;;;9.35;2.25;;;7.30;99.90;;;;;;5021400;28;20049;-88
2022/12/27 11:24:20;;;;;;;14.85;2.63;;;6.70;99.90;;;;;;5002557;28;20415;-87
2022/12/27 11:26:57;;;;;;;14.57;2.40;;;6.60;99.90;;;;;;5022536;28;20518;-85
2022/12/27 11:29:25;;;;;;;13.70;2.50;;;6.80;99.90;;;;;;5003879;28;20394;-88
2022/12/27 11:31:52;;;;;;;12.32;2.35;;;6.60;99.90;;;;;;5007086;28;20399;-87
2022/12/27 11:34:48;;;;;;;9.85;2.15;;;6.50;99.90;;;;;;5008376;28;20045;-87
2022/12/27 11:37:18;;;;;;;11.35;2.38;;;6.40;99.90;;;;;;5001213;28;20037;-87
2022/12/27 11:39:45;;;;;;;12.90;2.60;;;6.70;99.90;;;;;;5006744;28;20095;-86
2022/12/27 11:42:31;;;;;;;12.32;2.58;;;7.00;99.90;;;;;;5018447;28;20033;-87
2022/12/27 11:45:13;;;;;;;9.57;2.00;;;6.20;99.90;;;;;;5019010;28;20044;-88
2022/12/27 11:48:09;;;;;;;13.50;2.40;;;6.10;99.90;;;;;;5022039;28;20533;-87
2022/12/27 11:51:08;;;;;;;12.57;2.97;;;6.20;99.90;;;;;;5017402;28;20041;-87
2022/12/27 11:53:49;;;;;;;11.23;2.30;;;6.40;99.90;;;;;;5038327;28;20037;-86
2022/12/27 11:56:33;;;;;;;10.60;2.53;;;6.50;99.90;;;;;;5021977;28;20473;-88
2022/12/27 11:59:33;;;;;;;10.05;2.35;;;6.60;99.90;;;;;;5001146;28;20136;-85
2022/12/27 12:02:05;;;;;;;12.55;2.50;;;6.70;99.90;;;;;;5011895;28;20042;-88
2022/12/27 12:04:49;;;;;;;12.35;2.47;;;6.70;99.90;;;;;;5003939;28;20045;-87
2022/12/27 12:07:52;;;;;;;14.25;2.63;;;6.70;99.90;;;;;;5024024;28;20045;-87
2022/12/27 12:10:20;;;;;;;15.40;2.60;;;6.70;99.90;;;;;;5020474;28;20353;-88
2022/12/27 12:12:52;;;;;;;10.38;2.60;;;6.70;99.90;;;;;;5005625;28;20056;-88
2022/12/27 12:15:27;;;;;;;11.40;2.38;;;6.80;99.90;;;;;;5028036;28;20061;-86
2022/12/27 12:18:20;;;;;;;14.02;2.53;;;7.00;99.90;;;;;;5020728;28;20568;-87
2022/12/27 12:21:16;;;;;;;10.52;2.30;;;6.80;99.90;;;;;;5022240;28;20041;-86
2022/12/27 12:23:57;;;;;;;11.20;2.55;;;6.80;99.90;;;;;;5020610;28;20030;-88
2022/12/27 12:26:32;;;;;;;12.27;2.83;;;6.80;99.90;;;;;;5006713;28;20029;-87
2022/12/27 12:29:17;;;;;;;13.93;2.55;;;6.80;99.90;;;;;;5036716;28;20045;-87
2022/12/27 12:32:25;;;;;;;12.93;2.83;;;6.80;99.90;;;;;;5022770;28;20560;-87
2022/12/27 12:35:17;;;;;;;10.60;2.55;;;6.80;99.90;;;;;;5007195;28;20072;-87
2022/12/27 12:38:04;;;;;;;12.50;2.70;;;6.80;99.90;;;;;;5005668;28;20042;-86
2022/12/27 12:40:54;;;;;;;13.65;2.92;;;6.80;99.90;;;;;;5006363;28;20043;-86
2022/12/27 12:43:42;;;;;;;11.93;2.55;;;6.90;99.90;;;;;;5007060;28;20041;-88
2022/12/27 12:46:52;;;;;;;10.60;2.38;;;6.90;99.90;;;;;;5037506;28;20049;-87
2022/12/27 12:49:49;;;;;;;13.52;2.78;;;6.90;99.90;;;;;;5001417;28;20137;-86
2022/12/27 12:52:41;;;;;;;12.63;2.45;;;6.90;99.90;;;;;;5004951;28;20564;-87
2022/12/27 12:55:24;;;;;;;14.60;2.90;;;6.80;99.90;;;;;;5006101;28;20049;-88
2022/12/27 12:58:29;;;;;;;14.93;2.90;;;6.70;99.90;;;;;;5020025;28;20172;-87
2022/12/27 13:01:20;;;;;;;10.40;2.40;;;6.70;99.90;;;;;;5021019;28;20041;-87
2022/12/27 13:04:00;;;;;;;14.00;2.53;;;6.70;99.90;;;;;;5022358;28;20041;-87
2022/12/27 13:06:41;;;;;;;10.57;2.80;;;6.70;99.90;;;;;;5003998;28;20037;-87
2022/12/27 13:09:21;;;;;;;13.23;3.10;;;6.60;99.90;;;;;;5019994;28;20052;-86
2022/12/27 13:12:02;;;;;;;12.43;2.67;;;6.60;99.90;;;;;;5015054;28;20042;-87
2022/12/27 13:15:00;;;;;;;13.82;2.88;;;6.60;99.90;;;;;;5020265;28;20123;-86
2022/12/27 13:17:54;;;;;;;11.05;2.67;;;6.50;99.90;;;;;;4974025;28;20053;-86
2022/12/27 13:20:52;;;;;;;13.73;2.90;;;6.50;99.90;;;;;;5018122;28;20160;-87
2022/12/27 13:23:33;;;;;;;11.23;2.60;;;6.50;99.90;;;;;;5015372;28;20044;-86
2022/12/27 13:26:33;;;;;;;14.07;2.80;;;6.50;99.90;;;;;;5019152;28;20053;-86
2022/12/27 13:29:35;;;;;;;12.70;2.65;;;6.40;99.90;;;;;;5014502;28;20060;-87
2022/12/27 13:32:24;;;;;;;12.15;2.50;;;6.40;99.90;;;;;;5023776;28;20048;-87
2022/12/27 13:35:04;;;;;;;10.80;2.47;;;6.40;99.90;;;;;;5021852;28;20061;-87
2022/12/27 13:37:47;;;;;;;12.10;2.50;;;6.30;99.90;;;;;;5017539;28;20067;-86
2022/12/27 13:40:49;;;;;;;10.13;2.42;;;6.30;99.90;;;;;;5001482;28;20605;-85
2022/12/27 13:43:54;;;;;;;13.05;2.60;;;6.20;99.90;;;;;;5011968;28;20041;-84
2022/12/27 13:46:45;;;;;;;11.38;2.60;;;6.10;99.90;;;;;;5004337;28;20488;-84
2022/12/27 13:49:48;;;;;;;11.65;2.50;;;6.10;99.90;;;;;;5030917;28;20444;-86
2022/12/27 13:52:51;;;;;;;12.95;2.55;;;6.00;99.90;;;;;;5047946;28;20115;-87
2022/12/27 13:55:59;;;;;;;11.85;3.15;;;6.00;99.90;;;;;;5028290;28;20053;-85
2022/12/27 13:58:51;;;;;;;14.65;2.60;;;5.90;99.90;;;;;;5030498;28;20121;-86
2022/12/27 14:01:35;;;;;;;12.50;3.05;;;5.90;99.90;;;;;;5031858;28;20041;-84
2022/12/27 14:04:21;;;;;;;11.50;2.70;;;5.80;99.90;;;;;;5026437;28;20041;-84
2022/12/27 14:07:11;;;;;;;11.48;3.10;;;5.80;99.90;;;;;;5027970;28;20033;-84
2022/12/27 14:09:49;;;;;;;11.38;3.17;;;5.80;99.90;;;;;;5025457;28;20628;-87
2022/12/27 14:12:56;;;;;;;13.98;3.42;;;5.80;99.90;;;;;;5025367;28;20033;-87
2022/12/27 14:15:38;;;;;;;15.07;3.53;;;5.80;99.90;;;;;;5006840;28;21753;-86
2022/12/27 14:18:19;;;;;;;14.10;3.28;;;5.80;99.90;;;;;;5023307;28;20053;-87
2022/12/27 14:21:22;;;;;;;12.07;3.08;;;5.80;99.90;;;;;;5024478;28;20111;-89
2022/12/27 14:23:51;;;;;;;13.18;3.03;;;5.80;99.90;;;;;;5023683;28;20524;-87
2022/12/27 14:26:36;;;;;;;12.40;2.92;;;6.50;99.90;;;;;;5024054;28;20037;-86
2022/12/27 14:29:07;;;;;;;14.02;3.55;;;5.90;99.90;;;;;;5025398;28;20041;-87
2022/12/27 14:31:49;;;;;;;13.73;3.50;;;5.80;99.90;;;;;;5009726;28;20088;-87
2022/12/27 14:34:45;;;;;;;14.05;3.60;;;5.90;99.90;;;;;;5007113;28;20041;-86
2022/12/27 14:37:34;;;;;;;14.52;3.40;;;5.80;99.90;;;;;;5022939;28;20037;-88
2022/12/27 14:40:09;;;;;;;13.52;3.75;;;6.70;99.90;;;;;;5010212;28;20048;-87
2022/12/27 14:42:43;;;;;;;15.02;3.30;;;5.80;99.90;;;;;;5008741;28;20033;-87
2022/12/27 14:45:26;;;;;;;15.15;3.75;;;5.80;99.90;;;;;;5023978;28;20143;-87
2022/12/27 14:48:05;;;;;;;13.25;3.53;;;5.80;99.90;;;;;;5009168;28;20030;-88
2022/12/27 14:51:08;;;;;;;12.80;3.72;;;6.50;99.90;;;;;;5029927;28;20124;-88
2022/12/27 14:54:00;;;;;;;12.27;3.38;;;5.80;99.90;;;;;;5025146;28;20497;-88
2022/12/27 14:57:01;;;;;;;15.60;3.90;;;6.70;99.90;;;;;;4990331;28;20042;-89
2022/12/27 14:59:49;;;;;;;12.27;3.78;;;5.70;99.90;;;;;;5022095;28;20554;-89